Terminal Aerodrome Forecast
Issued by NWS

Home | Current Version | Previous Version | Text Only | Print | Product List | Glossary On
Versions: 1 2 3 4 5 6 7 8 9 10 11 12 13 14 15
000
FTUS45 KPSR 231138
TAFIWA
TAF
KIWA 231138Z 2312/2412 34010KT P6SM -SHRA FEW010 BKN030
     FM231500 24008KT P6SM VCSH FEW040 BKN050 BKN100
     FM232100 27014G22KT P6SM FEW040 BKN060
     FM240200 26010KT P6SM FEW080
     FM240600 12007KT P6SM SKC
      AMD LTD TO CLD VIS AND WIND TIL 231300=

USA.gov is the U.S. government's official web portal to all federal, state and local government web resources and services.